49A

Gilmer County Airport

Ellijay, Georgia, USA
METAR K49A 210335Z AUTO 00000KT 10SM CLR 11/01 A3031 RMK AO2 T01110013
Observed Flight Rules
Apr-21 @ 03:35 UTC (12 minutes ago) Visual Flight Rules
Visibility Clouds
10 miles
  • Clear skies
Temperatures Readings
Current 11°C / 52°F
Dewpoint 1°C / 34°F
Humidity 50%
Altimeter 30.31" Hg
Pressure 1026 hPa
Elevation 453
METAR K49A 210335Z AUTO 00000KT 10SM CLR 11/01 A3031 RMK AO2 T01110013
Observed Flight Rules
Apr-21 @ 03:35 UTC
(12 minutes ago)
VFR
Clouds
  • Clear skies
Temperature Dewpoint
11°C / 52°F 1°C / 34°F
Humidity Altimeter Pressure
50% 30.31" Hg 1026 hPa